Observation data for Denver City on 08/12/2020      Previous  Date       Current Mesonet Observations  Soil Data  Daily Summary Page  Observations in Plain Language
KDVS 120500Z 18016G21KT 29/12 A3001 RMK A01 T02850115  RH  036%=      5-min Rain = 0
KDVS 120505Z 17015G20KT 29/11 A3001 RMK A01 T02860113  RH  036%=      5-min Rain = 0
KDVS 120510Z 16013G19KT 29/12 A3001 RMK A01 T02860115  RH  036%=      5-min Rain = 0
KDVS 120515Z 16011KT 28/12 A3001 RMK A01 T02800116  RH  037%=      5-min Rain = 0
KDVS 120520Z 16011G16KT 28/11 A3001 RMK A01 T02800114  RH  037%=      5-min Rain = 0
KDVS 120525Z 16014G20KT 28/11 A30 RMK A01 T02820112  RH  036%=      5-min Rain = 0
KDVS 120530Z 15014G19KT 28/11 A30 RMK A01 T02820112  RH  036%=      5-min Rain = 0
KDVS 120535Z 16013KT 28/11 A30 RMK A01 T02810112  RH  036%=      5-min Rain = 0
KDVS 120540Z 17011KT 28/11 A30 RMK A01 T02800113  RH  037%=      5-min Rain = 0
KDVS 120545Z 16008KT 28/11 A30 RMK A01 T02770113  RH  037%=      5-min Rain = 0
KDVS 120550Z 15008KT 27/11 A30 RMK A01 T02730112  RH  038%=      5-min Rain = 0
KDVS 120555Z 15009KT 27/11 A30 RMK A01 T02740109  RH  037%=      5-min Rain = 0
KDVS 120600Z 16009KT 28/11 A30 RMK A01 T02770110  RH  037%=      5-min Rain = 0
KDVS 120605Z 17008KT 28/11 A30 RMK A01 T02760112  RH  037%=      5-min Rain = 0
KDVS 120610Z 18008KT 27/11 A30 RMK A01 T02740113  RH  038%=      5-min Rain = 0
KDVS 120615Z 18010KT 28/11 A3001 RMK A01 T02760113  RH  038%=      5-min Rain = 0
KDVS 120620Z 18010KT 28/12 A3001 RMK A01 T02770115  RH  038%=      5-min Rain = 0
KDVS 120625Z 17010G15KT 28/12 A3001 RMK A01 T02770115  RH  038%=      5-min Rain = 0
KDVS 120630Z 16009KT 28/12 A3001 RMK A01 T02770116  RH  038%=      5-min Rain = 0
KDVS 120635Z 17008KT 27/12 A3001 RMK A01 T02740117  RH  039%=      5-min Rain = 0
KDVS 120640Z 17011KT 28/12 A3001 RMK A01 T02760118  RH  039%=      5-min Rain = 0
KDVS 120645Z 16011KT 28/12 A3001 RMK A01 T02770118  RH  039%=      5-min Rain = 0
KDVS 120650Z 17011KT 28/12 A3001 RMK A01 T02760119  RH  039%=      5-min Rain = 0
KDVS 120655Z 16009KT 28/12 A3001 RMK A01 T02750119  RH  039%=      5-min Rain = 0
KDVS 120700Z 16009KT 27/12 A3001 RMK A01 T02710119  RH  040%=      5-min Rain = 0
KDVS 120705Z 16009G14KT 27/12 A3001 RMK A01 T02690119  RH  041%=      5-min Rain = 0
KDVS 120710Z 17010G15KT 27/12 A3001 RMK A01 T02700119  RH  040%=      5-min Rain = 0
KDVS 120715Z 16009KT 27/12 A3001 RMK A01 T02690119  RH  041%=      5-min Rain = 0
KDVS 120720Z 16009KT 27/12 A3001 RMK A01 T02670119  RH  041%=      5-min Rain = 0
KDVS 120725Z 15008KT 26/12 A3002 RMK A01 T02630119  RH  042%=      5-min Rain = 0
KDVS 120730Z 16008KT 26/12 A3002 RMK A01 T02610119  RH  043%=      5-min Rain = 0
KDVS 120735Z 16008KT 26/12 A3002 RMK A01 T02600119  RH  043%=      5-min Rain = 0
KDVS 120740Z 16008KT 26/12 A3002 RMK A01 T02580119  RH  044%=      5-min Rain = 0
KDVS 120745Z 16008KT 26/12 A3002 RMK A01 T02550119  RH  044%=      5-min Rain = 0
KDVS 120750Z 17008KT 25/12 A3002 RMK A01 T02530119  RH  045%=      5-min Rain = 0
KDVS 120755Z 16008KT 25/12 A3003 RMK A01 T02520119  RH  045%=      5-min Rain = 0
KDVS 120800Z 15008KT 25/12 A3003 RMK A01 T02490119  RH  046%=      5-min Rain = 0
KDVS 120805Z 16008KT 25/12 A3003 RMK A01 T02480119  RH  046%=      5-min Rain = 0
KDVS 120810Z 16008KT 25/12 A3003 RMK A01 T02490119  RH  046%=      5-min Rain = 0
KDVS 120815Z 16008KT 25/12 A3003 RMK A01 T02470119  RH  046%=      5-min Rain = 0
KDVS 120820Z 15007KT 25/12 A3003 RMK A01 T02460119  RH  047%=      5-min Rain = 0
KDVS 120825Z 14006KT 24/12 A3003 RMK A01 T02440119  RH  047%=      5-min Rain = 0
KDVS 120830Z 15007KT 24/12 A3003 RMK A01 T02410119  RH  048%=      5-min Rain = 0
KDVS 120835Z 17007KT 24/12 A3003 RMK A01 T02410120  RH  048%=      5-min Rain = 0
KDVS 120840Z 17007KT 24/12 A3003 RMK A01 T02420120  RH  048%=      5-min Rain = 0
KDVS 120845Z 16006KT 24/12 A3004 RMK A01 T02410120  RH  048%=      5-min Rain = 0
KDVS 120850Z 16006KT 24/12 A3004 RMK A01 T02350120  RH  050%=      5-min Rain = 0
KDVS 120855Z 18007KT 24/12 A3004 RMK A01 T02350120  RH  050%=      5-min Rain = 0
KDVS 120900Z 19007KT 24/12 A3004 RMK A01 T02410120  RH  048%=      5-min Rain = 0
KDVS 120905Z 19007KT 24/12 A3004 RMK A01 T02430121  RH  048%=      5-min Rain = 0
KDVS 120910Z 18006KT 24/12 A3004 RMK A01 T02410121  RH  049%=      5-min Rain = 0
KDVS 120915Z 19006KT 24/12 A3004 RMK A01 T02380122  RH  050%=      5-min Rain = 0
KDVS 120920Z 20006KT 24/12 A3004 RMK A01 T02360122  RH  051%=      5-min Rain = 0
KDVS 120925Z 19006KT 23/12 A3004 RMK A01 T02340122  RH  051%=      5-min Rain = 0
KDVS 120930Z 18006KT 23/12 A3004 RMK A01 T02330122  RH  052%=      5-min Rain = 0
KDVS 120935Z 17006KT 23/12 A3004 RMK A01 T02290123  RH  053%=      5-min Rain = 0
KDVS 120940Z 17007KT 23/12 A3004 RMK A01 T02250122  RH  054%=      5-min Rain = 0
KDVS 120945Z 18008KT 23/12 A3004 RMK A01 T02270122  RH  054%=      5-min Rain = 0
KDVS 120950Z 17008KT 23/12 A3004 RMK A01 T02280122  RH  053%=      5-min Rain = 0
KDVS 120955Z 17008KT 23/12 A3004 RMK A01 T02280123  RH  053%=      5-min Rain = 0
KDVS 121000Z 17008KT 23/12 A3004 RMK A01 T02280124  RH  054%=      5-min Rain = 0
KDVS 121005Z 18008KT 23/12 A3004 RMK A01 T02280124  RH  054%=      5-min Rain = 0
KDVS 121010Z 18007KT 23/13 A3004 RMK A01 T02270125  RH  054%=      5-min Rain = 0
KDVS 121015Z 17007KT 23/13 A3004 RMK A01 T02260125  RH  055%=      5-min Rain = 0
KDVS 121020Z 17007KT 22/12 A3004 RMK A01 T02230124  RH  056%=      5-min Rain = 0
KDVS 121025Z 19008KT 22/13 A3003 RMK A01 T02220125  RH  056%=      5-min Rain = 0
KDVS 121030Z 19008KT 22/13 A3003 RMK A01 T02240126  RH  056%=      5-min Rain = 0
KDVS 121035Z 19008KT 23/13 A3003 RMK A01 T02250127  RH  056%=      5-min Rain = 0
KDVS 121040Z 19007KT 22/13 A3003 RMK A01 T02240128  RH  057%=      5-min Rain = 0
KDVS 121045Z 20007KT 22/13 A3003 RMK A01 T02230128  RH  057%=      5-min Rain = 0
KDVS 121050Z 20006KT 22/13 A3003 RMK A01 T02210127  RH  057%=      5-min Rain = 0
KDVS 121055Z 21005KT 22/13 A3003 RMK A01 T02200127  RH  058%=      5-min Rain = 0
KDVS 121100Z 21005KT 22/13 A3003 RMK A01 T02190126  RH  058%=      5-min Rain = 0
KDVS 121105Z 20005KT 22/13 A3003 RMK A01 T02170127  RH  059%=      5-min Rain = 0
KDVS 121110Z 19006KT 22/13 A3003 RMK A01 T02160126  RH  059%=      5-min Rain = 0
KDVS 121115Z 18006KT 21/13 A3003 RMK A01 T02130127  RH  060%=      5-min Rain = 0
KDVS 121120Z 17007KT 21/13 A3003 RMK A01 T02090127  RH  062%=      5-min Rain = 0
KDVS 121125Z 17006KT 21/13 A3003 RMK A01 T02060127  RH  063%=      5-min Rain = 0
KDVS 121130Z 19006KT 21/13 A3003 RMK A01 T02060126  RH  063%=      5-min Rain = 0
KDVS 121135Z 19006KT 21/13 A3003 RMK A01 T02100127  RH  061%=      5-min Rain = 0
KDVS 121140Z 19006KT 21/13 A3003 RMK A01 T02120127  RH  061%=      5-min Rain = 0
KDVS 121145Z 19006KT 21/13 A3003 RMK A01 T02120128  RH  061%=      5-min Rain = 0
KDVS 121150Z 19007KT 21/13 A3003 RMK A01 T02130129  RH  061%=      5-min Rain = 0
KDVS 121155Z 20006KT 21/13 A3003 RMK A01 T02140130  RH  061%=      5-min Rain = 0
KDVS 121200Z 21005KT 21/13 A3003 RMK A01 T02120130  RH  062%=      5-min Rain = 0
KDVS 121205Z 19006KT 21/13 A3003 RMK A01 T02110130  RH  062%=      5-min Rain = 0
KDVS 121210Z 19008KT 21/13 A3003 RMK A01 T02130131  RH  062%=      5-min Rain = 0
KDVS 121215Z 19007KT 21/13 A3003 RMK A01 T02140131  RH  062%=      5-min Rain = 0
KDVS 121220Z 21005KT 21/13 A3003 RMK A01 T02140132  RH  062%=      5-min Rain = 0
KDVS 121225Z 22005KT 21/13 A3004 RMK A01 T02120131  RH  063%=      5-min Rain = 0
KDVS 121230Z 21006KT 21/13 A3003 RMK A01 T02100132  RH  063%=      5-min Rain = 0
KDVS 121235Z 19007KT 21/13 A3004 RMK A01 T02140133  RH  063%=      5-min Rain = 0
KDVS 121240Z 18007KT 22/13 A3003 RMK A01 T02170134  RH  062%=      5-min Rain = 0
KDVS 121245Z 18007KT 22/14 A3003 RMK A01 T02170135  RH  062%=      5-min Rain = 0
KDVS 121250Z 19006KT 22/14 A3004 RMK A01 T02190136  RH  062%=      5-min Rain = 0
KDVS 121255Z 18006KT 22/14 A3004 RMK A01 T02220138  RH  061%=      5-min Rain = 0
KDVS 121300Z 18006KT 23/14 A3004 RMK A01 T02250138  RH  061%=      5-min Rain = 0
KDVS 121305Z 20005KT 23/14 A3004 RMK A01 T02270140  RH  060%=      5-min Rain = 0
KDVS 121310Z 21004KT 23/14 A3005 RMK A01 T02280142  RH  061%=      5-min Rain = 0
KDVS 121315Z 18005KT 23/14 A3004 RMK A01 T02310143  RH  060%=      5-min Rain = 0
KDVS 121320Z 20004KT 23/14 A3005 RMK A01 T02340144  RH  059%=      5-min Rain = 0
KDVS 121325Z 20005KT 24/15 A3005 RMK A01 T02370145  RH  059%=      5-min Rain = 0
KDVS 121330Z 18006KT 24/15 A3005 RMK A01 T02390146  RH  059%=      5-min Rain = 0
KDVS 121335Z 18006KT 24/15 A3005 RMK A01 T02410148  RH  058%=      5-min Rain = 0
KDVS 121340Z 19006KT 25/15 A3005 RMK A01 T02460149  RH  057%=      5-min Rain = 0
KDVS 121345Z 19007KT 25/15 A3005 RMK A01 T02480150  RH  057%=      5-min Rain = 0
KDVS 121350Z 19008KT 25/15 A3005 RMK A01 T02510151  RH  056%=      5-min Rain = 0
KDVS 121355Z 19007KT 26/15 A3005 RMK A01 T02550152  RH  055%=      5-min Rain = 0
KDVS 121400Z 19008KT 26/15 A3005 RMK A01 T02570152  RH  055%=      5-min Rain = 0
KDVS 121405Z 19010KT 26/15 A3005 RMK A01 T02600151  RH  053%=      5-min Rain = 0
KDVS 121410Z 19009KT 26/15 A3005 RMK A01 T02620152  RH  053%=      5-min Rain = 0
KDVS 121415Z 19010KT 26/15 A3005 RMK A01 T02630152  RH  053%=      5-min Rain = 0
KDVS 121420Z 19009KT 27/15 A3005 RMK A01 T02670152  RH  052%=      5-min Rain = 0
KDVS 121425Z 19011KT 27/15 A3005 RMK A01 T02700151  RH  050%=      5-min Rain = 0
KDVS 121430Z 19011KT 27/15 A3005 RMK A01 T02700151  RH  050%=      5-min Rain = 0
KDVS 121435Z 19010KT 27/15 A3005 RMK A01 T02710152  RH  050%=      5-min Rain = 0
KDVS 121440Z 19011G17KT 28/15 A3005 RMK A01 T02750152  RH  049%=      5-min Rain = 0
KDVS 121445Z 19014KT 27/15 A3005 RMK A01 T02740150  RH  049%=      5-min Rain = 0
KDVS 121450Z 18013KT 28/15 A3005 RMK A01 T02760151  RH  048%=      5-min Rain = 0
KDVS 121455Z 18011KT 28/15 A3005 RMK A01 T02770152  RH  048%=      5-min Rain = 0
KDVS 121500Z 18010KT 28/15 A3005 RMK A01 T02790153  RH  048%=      5-min Rain = 0
KDVS 121505Z 19011KT 28/15 A3005 RMK A01 T02820153  RH  047%=      5-min Rain = 0
KDVS 121510Z 19010KT 28/15 A3005 RMK A01 T02830154  RH  048%=      5-min Rain = 0
KDVS 121515Z 19012KT 29/15 A3005 RMK A01 T02850153  RH  047%=      5-min Rain = 0
KDVS 121520Z 19013KT 28/15 A3005 RMK A01 T02840152  RH  047%=      5-min Rain = 0
KDVS 121525Z 19013KT 29/15 A3005 RMK A01 T02870153  RH  046%=      5-min Rain = 0
KDVS 121530Z 19012KT 29/15 A3005 RMK A01 T02880153  RH  046%=      5-min Rain = 0
KDVS 121535Z 19011KT 29/16 A3005 RMK A01 T02920155  RH  045%=      5-min Rain = 0
KDVS 121540Z 19011KT 30/16 A3005 RMK A01 T02950155  RH  045%=      5-min Rain = 0
KDVS 121545Z 20011KT 30/16 A3005 RMK A01 T02980158  RH  045%=      5-min Rain = 0
KDVS 121550Z 19010G15KT 30/16 A3004 RMK A01 T03030157  RH  043%=      5-min Rain = 0
KDVS 121555Z 20010KT 31/15 A3004 RMK A01 T03050154  RH  042%=      5-min Rain = 0
KDVS 121600Z 20011KT 31/15 A3005 RMK A01 T03090152  RH  040%=      5-min Rain = 0
KDVS 121605Z 19012KT 31/15 A3005 RMK A01 T03100150  RH  040%=      5-min Rain = 0
KDVS 121610Z 20011G16KT 31/15 A3005 RMK A01 T03090152  RH  040%=      5-min Rain = 0
KDVS 121615Z 20011KT 31/15 A3005 RMK A01 T03120153  RH  040%=      5-min Rain = 0
KDVS 121620Z 19012KT 32/15 A3005 RMK A01 T03150151  RH  039%=      5-min Rain = 0
KDVS 121625Z 19010G16KT 32/15 A3005 RMK A01 T03160153  RH  039%=      5-min Rain = 0
KDVS 121630Z 20010KT 32/15 A3005 RMK A01 T03220152  RH  037%=      5-min Rain = 0
KDVS 121635Z 19011KT 32/15 A3005 RMK A01 T03220150  RH  037%=      5-min Rain = 0
KDVS 121640Z 19011KT 32/15 A3005 RMK A01 T03240149  RH  037%=      5-min Rain = 0
KDVS 121645Z 19011KT 32/15 A3005 RMK A01 T03240149  RH  036%=      5-min Rain = 0
KDVS 121650Z 18011KT 33/15 A3005 RMK A01 T03270149  RH  036%=      5-min Rain = 0
KDVS 121655Z 18010KT 33/15 A3005 RMK A01 T03300150  RH  035%=      5-min Rain = 0
KDVS 121700Z 18010KT 34/14 A3005 RMK A01 T03350144  RH  033%=      5-min Rain = 0
KDVS 121705Z 19010G15KT 34/14 A3005 RMK A01 T03390141  RH  032%=      5-min Rain = 0
KDVS 121710Z 18011KT 34/14 A3005 RMK A01 T03390138  RH  031%=      5-min Rain = 0
KDVS 121715Z 20011KT 34/14 A3005 RMK A01 T03420138  RH  030%=      5-min Rain = 0
KDVS 121720Z 20010KT 34/13 A3005 RMK A01 T03430127  RH  028%=      5-min Rain = 0
KDVS 121725Z 20010KT 34/14 A3005 RMK A01 T03440136  RH  030%=      5-min Rain = 0
KDVS 121730Z 20010KT 35/14 A3005 RMK A01 T03450136  RH  030%=      5-min Rain = 0
KDVS 121735Z 19011KT 35/13 A3005 RMK A01 T03490133  RH  028%=      5-min Rain = 0
KDVS 121740Z 20012KT 35/13 A3005 RMK A01 T03500132  RH  028%=      5-min Rain = 0
KDVS 121745Z 22011KT 35/12 A3005 RMK A01 T03500121  RH  026%=      5-min Rain = 0
KDVS 121750Z 21011G16KT 35/12 A3005 RMK A01 T03510124  RH  026%=      5-min Rain = 0
KDVS 121755Z 21011KT 35/13 A3005 RMK A01 T03540125  RH  026%=      5-min Rain = 0
KDVS 121800Z 21012KT 35/12 A3005 RMK A01 T03530121  RH  026%=      5-min Rain = 0
KDVS 121805Z 19010G15KT 36/13 A3004 RMK A01 T03570129  RH  026%=      5-min Rain = 0
KDVS 121810Z 19011G16KT 36/12 A3004 RMK A01 T03560123  RH  026%=      5-min Rain = 0
KDVS 121815Z 18012KT 36/12 A3004 RMK A01 T03590119  RH  025%=      5-min Rain = 0
KDVS 121820Z 19011G16KT 36/12 A3004 RMK A01 T03600121  RH  025%=      5-min Rain = 0
KDVS 121825Z 19009G16KT 36/12 A3004 RMK A01 T03620117  RH  024%=      5-min Rain = 0
KDVS 121830Z 19010KT 37/12 A3003 RMK A01 T03690117  RH  023%=      5-min Rain = 0
KDVS 121835Z 18011KT 37/12 A3003 RMK A01 T03680119  RH  023%=      5-min Rain = 0
KDVS 121840Z 19010G15KT 37/12 A3003 RMK A01 T03670119  RH  023%=      5-min Rain = 0
KDVS 121845Z 20010KT 37/11 A3003 RMK A01 T03690112  RH  022%=      5-min Rain = 0
KDVS 121850Z 18011G18KT 37/11 A3002 RMK A01 T03720109  RH  021%=      5-min Rain = 0
KDVS 121855Z 18010KT 37/11 A3002 RMK A01 T03700113  RH  022%=      5-min Rain = 0
KDVS 121900Z 19011G17KT 37/10 A3002 RMK A01 T03740098  RH  019%=      5-min Rain = 0
KDVS 121905Z 21011G17KT 38/08 A3002 RMK A01 T03790076  RH  016%=      5-min Rain = 0
KDVS 121910Z 19011G19KT 38/08 A3001 RMK A01 T03770079  RH  017%=      5-min Rain = 0
KDVS 121915Z 20013G18KT 38/09 A3001 RMK A01 T03780087  RH  018%=      5-min Rain = 0
KDVS 121920Z 20011KT 38/09 A3001 RMK A01 T03810089  RH  018%=      5-min Rain = 0
KDVS 121925Z 20011KT 38/08 A3001 RMK A01 T03830081  RH  017%=      5-min Rain = 0
KDVS 121930Z 20012G19KT 38/07 A3001 RMK A01 T03830073  RH  016%=      5-min Rain = 0
KDVS 121935Z 20013G19KT 38/07 A3001 RMK A01 T03830067  RH  015%=      5-min Rain = 0
KDVS 121940Z 22011KT 38/07 A3001 RMK A01 T03840067  RH  015%=      5-min Rain = 0
KDVS 121945Z 20009G15KT 38/08 A30 RMK A01 T03840076  RH  016%=      5-min Rain = 0
KDVS 121950Z 22007G12KT 39/08 A30 RMK A01 T03860082  RH  016%=      5-min Rain = 0
KDVS 121955Z 21009G14KT 39/08 A30 RMK A01 T03910080  RH  016%=      5-min Rain = 0
KDVS 122000Z 23007G12KT 39/08 A30 RMK A01 T03930076  RH  015%=      5-min Rain = 0
KDVS 122005Z 22010KT 39/08 A30 RMK A01 T03880076  RH  015%=      5-min Rain = 0
KDVS 122010Z 20008G13KT 39/08 A2999 RMK A01 T03880077  RH  016%=      5-min Rain = 0
KDVS 122015Z 19008G15KT 39/07 A2999 RMK A01 T03900074  RH  015%=      5-min Rain = 0
KDVS 122020Z 22009G14KT 39/07 A2999 RMK A01 T03910073  RH  015%=      5-min Rain = 0
KDVS 122025Z 24010G16KT 39/07 A2998 RMK A01 T03870072  RH  015%=      5-min Rain = 0
KDVS 122030Z 24010G15KT 39/07 A2998 RMK A01 T03860068  RH  015%=      5-min Rain = 0
KDVS 122035Z 22007G12KT 39/07 A2998 RMK A01 T03910066  RH  014%=      5-min Rain = 0
KDVS 122040Z 23006KT 39/07 A2998 RMK A01 T03890070  RH  015%=      5-min Rain = 0
KDVS 122045Z 20007KT 39/07 A2998 RMK A01 T03910070  RH  015%=      5-min Rain = 0
KDVS 122050Z 18007G12KT 40/07 A2998 RMK A01 T03980070  RH  014%=      5-min Rain = 0
KDVS 122055Z 22010KT 40/07 A2998 RMK A01 T03970069  RH  014%=      5-min Rain = 0
KDVS 122100Z 22007KT 39/07 A2997 RMK A01 T03890069  RH  015%=      5-min Rain = 0
KDVS 122105Z 19008KT 40/07 A2997 RMK A01 T03960070  RH  014%=      5-min Rain = 0
KDVS 122110Z 20009KT 39/07 A2997 RMK A01 T03940070  RH  014%=      5-min Rain = 0
KDVS 122115Z 18006G11KT 39/07 A2997 RMK A01 T03930070  RH  015%=      5-min Rain = 0
KDVS 122120Z 17004KT 40/07 A2997 RMK A01 T03950070  RH  014%=      5-min Rain = 0
KDVS 122125Z 20009KT 40/07 A2997 RMK A01 T03950069  RH  014%=      5-min Rain = 0
KDVS 122130Z 20007G14KT 39/07 A2997 RMK A01 T03930067  RH  014%=      5-min Rain = 0
KDVS 122135Z 07002KT 39/07 A2996 RMK A01 T03910067  RH  014%=      5-min Rain = 0
KDVS 122140Z 19007G13KT 39/07 A2996 RMK A01 T03940070  RH  014%=      5-min Rain = 0
KDVS 122145Z 18009KT 40/07 A2996 RMK A01 T03990070  RH  014%=      5-min Rain = 0
KDVS 122150Z 18009G14KT 40/07 A2996 RMK A01 T03960068  RH  014%=      5-min Rain = 0
KDVS 122155Z 19008KT 40/07 A2996 RMK A01 T03980067  RH  014%=      5-min Rain = 0
KDVS 122200Z 15005KT 39/07 A2996 RMK A01 T03930066  RH  014%=      5-min Rain = 0
KDVS 122205Z 17004KT 39/07 A2996 RMK A01 T03930068  RH  014%=      5-min Rain = 0
KDVS 122210Z 21007KT 40/07 A2996 RMK A01 T03990068  RH  014%=      5-min Rain = 0
KDVS 122215Z 20007KT 40/07 A2995 RMK A01 T03970067  RH  014%=      5-min Rain = 0
KDVS 122220Z 20005KT 40/07 A2995 RMK A01 T03970066  RH  014%=      5-min Rain = 0
KDVS 122225Z 25003KT 40/06 A2995 RMK A01 T03970064  RH  014%=      5-min Rain = 0
KDVS 122230Z 20008KT 40/07 A2995 RMK A01 T03980065  RH  014%=      5-min Rain = 0
KDVS 122235Z 19005KT 40/06 A2995 RMK A01 T03980064  RH  014%=      5-min Rain = 0
KDVS 122240Z 23003KT 40/07 A2995 RMK A01 T03980065  RH  014%=      5-min Rain = 0
KDVS 122245Z 23003G8KT 40/06 A2995 RMK A01 T03970064  RH  014%=      5-min Rain = 0
KDVS 122250Z 23007G12KT 39/07 A2995 RMK A01 T03940065  RH  014%=      5-min Rain = 0
KDVS 122255Z 24006G11KT 39/07 A2995 RMK A01 T03880066  RH  014%=      5-min Rain = 0
KDVS 122300Z 26002KT 38/07 A2995 RMK A01 T03830066  RH  015%=      5-min Rain = 0
KDVS 122305Z 17001KT 38/06 A2995 RMK A01 T03830064  RH  015%=      5-min Rain = 0
KDVS 122310Z 22003KT 38/06 A2995 RMK A01 T03840062  RH  014%=      5-min Rain = 0
KDVS 122315Z 23002KT 39/06 A2995 RMK A01 T03850061  RH  014%=      5-min Rain = 0
KDVS 122320Z 22002KT 39/06 A2995 RMK A01 T03870062  RH  014%=      5-min Rain = 0
KDVS 122325Z 16006KT 39/07 A2995 RMK A01 T03850067  RH  015%=      5-min Rain = 0
KDVS 122330Z 15006KT 38/07 A2995 RMK A01 T03830068  RH  015%=      5-min Rain = 0
KDVS 122335Z 16002KT 38/07 A2995 RMK A01 T03810066  RH  015%=      5-min Rain = 0
KDVS 122340Z 19001KT 38/07 A2995 RMK A01 T03790067  RH  015%=      5-min Rain = 0
KDVS 122345Z 06001KT 38/07 A2996 RMK A01 T03800068  RH  015%=      5-min Rain = 0
KDVS 122350Z 01002KT 38/07 A2996 RMK A01 T03780070  RH  016%=      5-min Rain = 0
KDVS 122355Z 04008G14KT 37/07 A2996 RMK A01 T03720073  RH  017%=      5-min Rain = 0
KDVS 130000Z 04010KT 36/08 A2996 RMK A01 T03630075  RH  018%=      5-min Rain = 0
KDVS 130005Z 04007KT 36/08 A2996 RMK A01 T03610076  RH  018%=      5-min Rain = 0
KDVS 130010Z 05006KT 36/08 A2996 RMK A01 T03590077  RH  018%=      5-min Rain = 0
KDVS 130015Z 02011G16KT 36/07 A2996 RMK A01 T03600073  RH  018%=      5-min Rain = 0
KDVS 130020Z 02014G22KT 35/07 A2997 RMK A01 T03540074  RH  018%=      5-min Rain = 0
KDVS 130025Z 32020G34KT 35/07 A2996 RMK A01 T03520073  RH  018%=      5-min Rain = 0
KDVS 130030Z 31024G47KT 34/09 A2997 RMK A01 T03360094  RH  023%=      5-min Rain = 0
KDVS 130035Z 33014G25KT 34/08 A2998 RMK A01 T03370082  RH  022%=      5-min Rain = 0
KDVS 130040Z 30006G13KT 35/07 A2997 RMK A01 T03500073  RH  019%=      5-min Rain = 0
KDVS 130045Z 06004KT 35/07 A2996 RMK A01 T03510070  RH  018%=      5-min Rain = 0
KDVS 130050Z 05007G15KT 36/06 A2995 RMK A01 T03560064  RH  017%=      5-min Rain = 0
KDVS 130055Z 08009G14KT 36/06 A2994 RMK A01 T03570062  RH  017%=      5-min Rain = 0
KDVS 130100Z 09010KT 36/06 A2994 RMK A01 T03570056  RH  016%=      5-min Rain = 0
KDVS 130105Z 12010KT 36/06 A2993 RMK A01 T03600056  RH  016%=      5-min Rain = 0
KDVS 130110Z 14008KT 36/06 A2994 RMK A01 T03620056  RH  015%=      5-min Rain = 0
KDVS 130115Z 13006KT 36/06 A2994 RMK A01 T03610058  RH  016%=      5-min Rain = 0
KDVS 130120Z 15005KT 36/06 A2995 RMK A01 T03590059  RH  016%=      5-min Rain = 0
KDVS 130125Z 16003KT 36/06 A2995 RMK A01 T03560059  RH  016%=      5-min Rain = 0
KDVS 130130Z 20004KT 36/06 A2995 RMK A01 T03580057  RH  016%=      5-min Rain = 0
KDVS 130135Z 24003KT 35/07 A2995 RMK A01 T03480072  RH  019%=      5-min Rain = 0
KDVS 130140Z 05004KT 34/07 A2996 RMK A01 T03390074  RH  020%=      5-min Rain = 0
KDVS 130145Z 24004G9KT 34/07 A2997 RMK A01 T03360072  RH  020%=      5-min Rain = 0
KDVS 130150Z 11004KT 34/07 A2998 RMK A01 T03420074  RH  020%=      5-min Rain = 0
KDVS 130155Z 10003KT 34/08 A2998 RMK A01 T03390077  RH  020%=      5-min Rain = 0
KDVS 130200Z 20001KT 33/08 A2998 RMK A01 T03340079  RH  021%=      5-min Rain = 0
KDVS 130205Z 16003KT 33/08 A2998 RMK A01 T03280080  RH  022%=      5-min Rain = 0
KDVS 130210Z 13008G17KT 32/08 A2998 RMK A01 T03210082  RH  023%=      5-min Rain = 0
KDVS 130215Z 12010G15KT 34/08 A2998 RMK A01 T03400079  RH  021%=      5-min Rain = 0
KDVS 130220Z 13007G12KT 35/08 A2999 RMK A01 T03450080  RH  020%=      5-min Rain = 0
KDVS 130225Z 14012G19KT 34/09 A2999 RMK A01 T03350091  RH  023%=      5-min Rain = 0
KDVS 130230Z 15011KT 34/10 A2999 RMK A01 T03370096  RH  024%=      5-min Rain = 0
KDVS 130235Z 15010G15KT 33/10 A30 RMK A01 T03320099  RH  025%=      5-min Rain = 0
KDVS 130240Z 16006KT 33/10 A30 RMK A01 T03280100  RH  025%=      5-min Rain = 0
KDVS 130245Z 14004KT 32/10 A3001 RMK A01 T03220101  RH  026%=      5-min Rain = 0
KDVS 130250Z 16005KT 32/10 A30 RMK A01 T03170102  RH  028%=      5-min Rain = 0
KDVS 130255Z 17005KT 32/10 A30 RMK A01 T03150103  RH  028%=      5-min Rain = 0
KDVS 130300Z 17006KT 32/10 A30 RMK A01 T03170104  RH  028%=      5-min Rain = 0
KDVS 130305Z 16008G13KT 32/11 A3001 RMK A01 T03150106  RH  029%=      5-min Rain = 0
KDVS 130310Z 15010KT 32/11 A30 RMK A01 T03150108  RH  029%=      5-min Rain = 0
KDVS 130315Z 15010KT 31/11 A3001 RMK A01 T03110111  RH  030%=      5-min Rain = 0
KDVS 130320Z 15010KT 31/11 A3001 RMK A01 T03080113  RH  031%=      5-min Rain = 0
KDVS 130325Z 15012KT 31/12 A3001 RMK A01 T03050115  RH  032%=      5-min Rain = 0
KDVS 130330Z 15010KT 31/12 A3001 RMK A01 T03050115  RH  032%=      5-min Rain = 0
KDVS 130335Z 15010KT 30/12 A3002 RMK A01 T03040116  RH  033%=      5-min Rain = 0
KDVS 130340Z 16008KT 30/12 A3002 RMK A01 T03020116  RH  033%=      5-min Rain = 0
KDVS 130345Z 16007KT 30/12 A3002 RMK A01 T02990117  RH  034%=      5-min Rain = 0
KDVS 130350Z 16007KT 30/12 A3002 RMK A01 T02960117  RH  034%=      5-min Rain = 0
KDVS 130355Z 15007KT 29/12 A3002 RMK A01 T02930118  RH  035%=      5-min Rain = 0
KDVS 130400Z 15006KT 29/12 A3002 RMK A01 T02900119  RH  036%=      5-min Rain = 0
KDVS 130405Z 15006KT 29/12 A3002 RMK A01 T02870120  RH  037%=      5-min Rain = 0
KDVS 130410Z 15006KT 29/12 A3002 RMK A01 T02850121  RH  038%=      5-min Rain = 0
KDVS 130415Z 16006KT 28/12 A3002 RMK A01 T02830121  RH  038%=      5-min Rain = 0
KDVS 130420Z 15006KT 28/12 A3002 RMK A01 T02800122  RH  039%=      5-min Rain = 0
KDVS 130425Z 15006KT 28/12 A3002 RMK A01 T02770122  RH  040%=      5-min Rain = 0
KDVS 130430Z 14007KT 27/12 A3002 RMK A01 T02730123  RH  041%=      5-min Rain = 0
KDVS 130435Z 16008KT 27/12 A3002 RMK A01 T02710123  RH  041%=      5-min Rain = 0
KDVS 130440Z 17009KT 28/12 A3002 RMK A01 T02770121  RH  039%=      5-min Rain = 0
KDVS 130445Z 17009KT 28/12 A3002 RMK A01 T02820119  RH  038%=      5-min Rain = 0
KDVS 130450Z 17009KT 28/12 A3002 RMK A01 T02830119  RH  037%=      5-min Rain = 0
KDVS 130455Z 18009KT 28/12 A3002 RMK A01 T02830117  RH  037%=      5-min Rain = 0

Page generated in 0.0434 seconds.